sensor_id;sensor_type;location;lat;lon;timestamp;pressure;altitude;pressure_sealevel;temperature;humidity
58843;BME280;44614;54.356;10.100;2022-08-25T00:01:10;101947.06;;;18.88;83.58
58843;BME280;44614;54.356;10.100;2022-08-25T00:03:37;101988.69;;;19.12;83.47
58843;BME280;44614;54.356;10.100;2022-08-25T00:06:04;101984.44;;;19.09;83.51
58843;BME280;44614;54.356;10.100;2022-08-25T00:08:30;101979.66;;;19.05;83.79
58843;BME280;44614;54.356;10.100;2022-08-25T00:10:55;101977.44;;;19.07;84.47
58843;BME280;44614;54.356;10.100;2022-08-25T00:13:21;101973.47;;;19.03;84.17
58843;BME280;44614;54.356;10.100;2022-08-25T00:15:46;101985.22;;;19.05;84.42
58843;BME280;44614;54.356;10.100;2022-08-25T00:18:11;101969.84;;;19.02;84.04
58843;BME280;44614;54.356;10.100;2022-08-25T00:20:37;101979.03;;;19.03;84.08
58843;BME280;44614;54.356;10.100;2022-08-25T00:23:02;101973.97;;;18.99;84.30
58843;BME280;44614;54.356;10.100;2022-08-25T00:25:27;101970.34;;;18.99;84.67
58843;BME280;44614;54.356;10.100;2022-08-25T00:27:53;101968.81;;;18.91;84.22
58843;BME280;44614;54.356;10.100;2022-08-25T00:30:18;101938.78;;;18.77;84.97
58843;BME280;44614;54.356;10.100;2022-08-25T00:32:45;101978.63;;;18.94;85.42
58843;BME280;44614;54.356;10.100;2022-08-25T00:35:11;101984.69;;;18.91;85.36
58843;BME280;44614;54.356;10.100;2022-08-25T00:37:36;101977.09;;;18.86;85.19
58843;BME280;44614;54.356;10.100;2022-08-25T00:40:04;101983.50;;;18.87;85.70
58843;BME280;44614;54.356;10.100;2022-08-25T00:42:30;101954.19;;;18.67;85.29
58843;BME280;44614;54.356;10.100;2022-08-25T00:44:55;101989.56;;;18.84;85.27
58843;BME280;44614;54.356;10.100;2022-08-25T00:47:23;101990.06;;;18.81;86.26
58843;BME280;44614;54.356;10.100;2022-08-25T00:49:50;101988.63;;;18.78;88.86
58843;BME280;44614;54.356;10.100;2022-08-25T00:52:27;101987.69;;;18.72;86.86
58843;BME280;44614;54.356;10.100;2022-08-25T00:54:58;101980.44;;;18.71;86.29
58843;BME280;44614;54.356;10.100;2022-08-25T00:57:28;101983.69;;;18.68;86.65
58843;BME280;44614;54.356;10.100;2022-08-25T00:59:54;101991.19;;;18.68;86.66
58843;BME280;44614;54.356;10.100;2022-08-25T01:02:21;101991.19;;;18.68;85.86
58843;BME280;44614;54.356;10.100;2022-08-25T01:04:47;101969.25;;;18.55;86.32
58843;BME280;44614;54.356;10.100;2022-08-25T01:07:13;101958.75;;;18.45;85.70
58843;BME280;44614;54.356;10.100;2022-08-25T01:09:39;102002.31;;;18.68;86.30
58843;BME280;44614;54.356;10.100;2022-08-25T01:12:06;101991.34;;;18.61;86.49
58843;BME280;44614;54.356;10.100;2022-08-25T01:14:33;101996.41;;;18.64;85.87
58843;BME280;44614;54.356;10.100;2022-08-25T01:16:59;102006.22;;;18.67;88.89
58843;BME280;44614;54.356;10.100;2022-08-25T01:19:27;102003.56;;;18.60;87.15
58843;BME280;44614;54.356;10.100;2022-08-25T01:21:53;102012.16;;;18.59;86.77
58843;BME280;44614;54.356;10.100;2022-08-25T01:24:30;102001.53;;;18.56;87.09
58843;BME280;44614;54.356;10.100;2022-08-25T01:26:57;102005.06;;;18.51;87.39
58843;BME280;44614;54.356;10.100;2022-08-25T01:29:22;101987.50;;;18.50;87.27
58843;BME280;44614;54.356;10.100;2022-08-25T01:31:56;101982.47;;;18.47;86.91
58843;BME280;44614;54.356;10.100;2022-08-25T01:34:26;101960.63;;;18.27;87.37
58843;BME280;44614;54.356;10.100;2022-08-25T01:36:53;101999.38;;;18.46;87.57
58843;BME280;44614;54.356;10.100;2022-08-25T01:39:18;101986.56;;;18.45;87.24
58843;BME280;44614;54.356;10.100;2022-08-25T01:44:14;101989.34;;;18.45;87.51
58843;BME280;44614;54.356;10.100;2022-08-25T01:46:40;101994.84;;;18.40;87.68
58843;BME280;44614;54.356;10.100;2022-08-25T01:49:06;101995.81;;;18.34;88.61
58843;BME280;44614;54.356;10.100;2022-08-25T01:51:42;101998.84;;;18.32;88.81
58843;BME280;44614;54.356;10.100;2022-08-25T01:54:07;101962.44;;;18.05;88.85
58843;BME280;44614;54.356;10.100;2022-08-25T01:56:33;101993.56;;;18.19;89.45
58843;BME280;44614;54.356;10.100;2022-08-25T01:58:58;102005.38;;;18.26;89.39
58843;BME280;44614;54.356;10.100;2022-08-25T02:01:24;101988.84;;;18.19;89.60
58843;BME280;44614;54.356;10.100;2022-08-25T02:03:52;101998.63;;;18.22;89.76
58843;BME280;44614;54.356;10.100;2022-08-25T02:06:21;101995.00;;;18.21;88.97
58843;BME280;44614;54.356;10.100;2022-08-25T02:08:53;101996.09;;;18.20;89.23
58843;BME280;44614;54.356;10.100;2022-08-25T02:11:19;102005.50;;;18.19;89.78
58843;BME280;44614;54.356;10.100;2022-08-25T02:13:46;101993.81;;;18.17;90.01
58843;BME280;44614;54.356;10.100;2022-08-25T02:16:15;102000.22;;;18.18;89.80
58843;BME280;44614;54.356;10.100;2022-08-25T02:18:42;102000.47;;;18.16;90.30
58843;BME280;44614;54.356;10.100;2022-08-25T02:21:09;101992.63;;;18.13;89.89
58843;BME280;44614;54.356;10.100;2022-08-25T02:23:35;102005.41;;;18.14;90.06
58843;BME280;44614;54.356;10.100;2022-08-25T02:26:00;101993.34;;;18.09;90.35
58843;BME280;44614;54.356;10.100;2022-08-25T02:28:26;101997.81;;;18.10;90.55
58843;BME280;44614;54.356;10.100;2022-08-25T02:30:51;102005.81;;;18.06;91.66
58843;BME280;44614;54.356;10.100;2022-08-25T02:33:17;101953.88;;;17.71;91.54
58843;BME280;44614;54.356;10.100;2022-08-25T02:35:43;102009.53;;;18.00;91.77
58843;BME280;44614;54.356;10.100;2022-08-25T02:38:09;101966.78;;;17.66;92.51
58843;BME280;44614;54.356;10.100;2022-08-25T02:40:34;101880.88;;;17.24;92.26
58843;BME280;44614;54.356;10.100;2022-08-25T02:43:00;102011.13;;;17.96;92.35
58843;BME280;44614;54.356;10.100;2022-08-25T02:45:25;102000.84;;;17.96;91.96
58843;BME280;44614;54.356;10.100;2022-08-25T02:47:50;101997.50;;;17.94;91.69
58843;BME280;44614;54.356;10.100;2022-08-25T02:50:16;102001.69;;;17.97;92.15
58843;BME280;44614;54.356;10.100;2022-08-25T02:52:41;102003.63;;;17.96;92.52
58843;BME280;44614;54.356;10.100;2022-08-25T02:55:09;102003.28;;;17.93;92.35
58843;BME280;44614;54.356;10.100;2022-08-25T02:57:38;101975.75;;;17.80;92.53
58843;BME280;44614;54.356;10.100;2022-08-25T03:00:04;102006.66;;;17.95;92.01
58843;BME280;44614;54.356;10.100;2022-08-25T03:02:30;101995.56;;;17.95;92.26
58843;BME280;44614;54.356;10.100;2022-08-25T03:04:56;101997.72;;;17.93;92.82
58843;BME280;44614;54.356;10.100;2022-08-25T03:07:22;101999.06;;;17.90;93.14
58843;BME280;44614;54.356;10.100;2022-08-25T03:09:47;101994.56;;;17.89;92.85
58843;BME280;44614;54.356;10.100;2022-08-25T03:12:13;101981.91;;;17.82;93.58
58843;BME280;44614;54.356;10.100;2022-08-25T03:14:39;101949.78;;;17.62;93.60
58843;BME280;44614;54.356;10.100;2022-08-25T03:17:07;101978.41;;;17.74;93.89
58843;BME280;44614;54.356;10.100;2022-08-25T03:19:33;101977.78;;;17.72;93.98
58843;BME280;44614;54.356;10.100;2022-08-25T03:21:59;101973.56;;;17.70;94.68
58843;BME280;44614;54.356;10.100;2022-08-25T03:24:25;101971.03;;;17.68;94.66
58843;BME280;44614;54.356;10.100;2022-08-25T03:26:51;101959.56;;;17.65;94.51
58843;BME280;44614;54.356;10.100;2022-08-25T03:29:25;101974.06;;;17.67;94.15
58843;BME280;44614;54.356;10.100;2022-08-25T03:31:52;101965.22;;;17.70;94.02
58843;BME280;44614;54.356;10.100;2022-08-25T03:34:19;101965.22;;;17.70;93.83
58843;BME280;44614;54.356;10.100;2022-08-25T03:36:48;101960.75;;;17.69;94.03
58843;BME280;44614;54.356;10.100;2022-08-25T03:39:13;101967.41;;;17.68;94.27
58843;BME280;44614;54.356;10.100;2022-08-25T03:41:40;101959.56;;;17.65;94.01
58843;BME280;44614;54.356;10.100;2022-08-25T03:44:06;101966.22;;;17.64;94.31
58843;BME280;44614;54.356;10.100;2022-08-25T03:46:38;101976.13;;;17.60;94.81
58843;BME280;44614;54.356;10.100;2022-08-25T03:49:05;101968.25;;;17.57;95.46
58843;BME280;44614;54.356;10.100;2022-08-25T03:51:34;101964.88;;;17.54;95.16
58843;BME280;44614;54.356;10.100;2022-08-25T03:54:00;101952.91;;;17.54;95.24
58843;BME280;44614;54.356;10.100;2022-08-25T03:56:26;101962.94;;;17.55;95.26
58843;BME280;44614;54.356;10.100;2022-08-25T03:58:52;101957.28;;;17.50;95.08
58843;BME280;44614;54.356;10.100;2022-08-25T04:01:18;101964.16;;;17.59;94.39
58843;BME280;44614;54.356;10.100;2022-08-25T04:03:44;101957.50;;;17.60;94.14
58843;BME280;44614;54.356;10.100;2022-08-25T04:06:09;101940.50;;;17.45;93.89
58843;BME280;44614;54.356;10.100;2022-08-25T04:08:35;101970.06;;;17.63;94.41
58843;BME280;44614;54.356;10.100;2022-08-25T04:11:06;101967.16;;;17.58;94.78
58843;BME280;44614;54.356;10.100;2022-08-25T04:13:32;101978.53;;;17.56;95.42
58843;BME280;44614;54.356;10.100;2022-08-25T04:15:57;101975.63;;;17.51;95.53
58843;BME280;44614;54.356;10.100;2022-08-25T04:18:22;101980.94;;;17.52;95.94
58843;BME280;44614;54.356;10.100;2022-08-25T04:20:48;101982.25;;;17.50;96.79
58843;BME280;44614;54.356;10.100;2022-08-25T04:23:13;101978.28;;;17.46;96.90
58843;BME280;44614;54.356;10.100;2022-08-25T04:25:40;101983.59;;;17.47;98.00
58843;BME280;44614;54.356;10.100;2022-08-25T04:28:09;101889.19;;;16.89;98.05
58843;BME280;44614;54.356;10.100;2022-08-25T04:30:35;101942.78;;;17.24;98.51
58843;BME280;44614;54.356;10.100;2022-08-25T04:33:01;101981.06;;;17.46;98.70
58843;BME280;44614;54.356;10.100;2022-08-25T04:35:26;101980.59;;;17.49;98.35
58843;BME280;44614;54.356;10.100;2022-08-25T04:37:51;101989.28;;;17.52;98.57
58843;BME280;44614;54.356;10.100;2022-08-25T04:40:17;101991.22;;;17.52;98.96
58843;BME280;44614;54.356;10.100;2022-08-25T04:42:42;101990.97;;;17.53;99.80
58843;BME280;44614;54.356;10.100;2022-08-25T04:45:09;101979.25;;;17.40;100.00
58843;BME280;44614;54.356;10.100;2022-08-25T04:47:38;101989.28;;;17.52;99.87
58843;BME280;44614;54.356;10.100;2022-08-25T04:50:05;101984.94;;;17.57;99.54
58843;BME280;44614;54.356;10.100;2022-08-25T04:52:31;101991.69;;;17.61;99.68
58843;BME280;44614;54.356;10.100;2022-08-25T04:54:56;101987.59;;;17.63;100.00
58843;BME280;44614;54.356;10.100;2022-08-25T04:57:22;101989.03;;;17.66;99.33
58843;BME280;44614;54.356;10.100;2022-08-25T04:59:47;101982.50;;;17.72;99.71
58843;BME280;44614;54.356;10.100;2022-08-25T05:02:12;101985.41;;;17.77;99.48
58843;BME280;44614;54.356;10.100;2022-08-25T05:04:38;101985.78;;;17.81;100.00
58843;BME280;44614;54.356;10.100;2022-08-25T05:07:04;101992.53;;;17.85;99.97
58843;BME280;44614;54.356;10.100;2022-08-25T05:09:30;101986.88;;;17.80;100.00
58843;BME280;44614;54.356;10.100;2022-08-25T05:11:55;101995.69;;;17.88;100.00
58843;BME280;44614;54.356;10.100;2022-08-25T05:14:22;101994.09;;;17.92;100.00
58843;BME280;44614;54.356;10.100;2022-08-25T05:16:48;101977.09;;;17.77;99.81
58843;BME280;44614;54.356;10.100;2022-08-25T05:19:13;101975.88;;;17.85;99.38
58843;BME280;44614;54.356;10.100;2022-08-25T05:21:39;101999.63;;;18.04;98.99
58843;BME280;44614;54.356;10.100;2022-08-25T05:24:05;102003.88;;;18.07;99.08
58843;BME280;44614;54.356;10.100;2022-08-25T05:26:33;101994.69;;;18.06;99.45
58843;BME280;44614;54.356;10.100;2022-08-25T05:29:00;101985.72;;;18.04;98.46
58843;BME280;44614;54.356;10.100;2022-08-25T05:31:27;101996.81;;;18.16;97.88
58843;BME280;44614;54.356;10.100;2022-08-25T05:33:53;101997.78;;;18.21;97.24
58843;BME280;44614;54.356;10.100;2022-08-25T05:36:20;101996.19;;;18.25;97.88
58843;BME280;44614;54.356;10.100;2022-08-25T05:38:46;101969.53;;;18.13;97.48
58843;BME280;44614;54.356;10.100;2022-08-25T05:41:15;102001.84;;;18.31;97.86
58843;BME280;44614;54.356;10.100;2022-08-25T05:43:43;101990.25;;;18.34;97.39
58843;BME280;44614;54.356;10.100;2022-08-25T05:46:09;101979.13;;;18.34;97.25
58843;BME280;44614;54.356;10.100;2022-08-25T05:48:35;101990.59;;;18.37;97.54
58843;BME280;44614;54.356;10.100;2022-08-25T05:51:03;101975.59;;;18.38;97.73
58843;BME280;44614;54.356;10.100;2022-08-25T05:53:29;101968.09;;;18.39;98.03
58843;BME280;44614;54.356;10.100;2022-08-25T05:55:56;101935.44;;;18.17;97.77
58843;BME280;44614;54.356;10.100;2022-08-25T05:58:23;101972.66;;;18.45;97.80
58843;BME280;44614;54.356;10.100;2022-08-25T06:00:50;101967.94;;;18.45;98.09
58843;BME280;44614;54.356;10.100;2022-08-25T06:03:16;101965.50;;;18.49;97.81
58843;BME280;44614;54.356;10.100;2022-08-25T06:05:42;101949.31;;;18.46;97.13
58843;BME280;44614;54.356;10.100;2022-08-25T06:08:07;101920.47;;;18.35;97.30
58843;BME280;44614;54.356;10.100;2022-08-25T06:10:33;101947.94;;;18.60;97.08
58843;BME280;44614;54.356;10.100;2022-08-25T06:12:59;101932.00;;;18.56;97.23
58843;BME280;44614;54.356;10.100;2022-08-25T06:15:25;101963.41;;;18.85;97.18
58843;BME280;44614;54.356;10.100;2022-08-25T06:17:51;101963.59;;;18.95;96.57
58843;BME280;44614;54.356;10.100;2022-08-25T06:20:20;101970.69;;;19.03;95.93
58843;BME280;44614;54.356;10.100;2022-08-25T06:22:46;101966.16;;;19.13;94.92
58843;BME280;44614;54.356;10.100;2022-08-25T06:25:13;101962.44;;;19.24;96.12
58843;BME280;44614;54.356;10.100;2022-08-25T06:27:38;101954.47;;;19.33;94.87
58843;BME280;44614;54.356;10.100;2022-08-25T06:30:06;101965.09;;;19.53;92.99
58843;BME280;44614;54.356;10.100;2022-08-25T06:32:36;101955.66;;;19.54;92.26
58843;BME280;44614;54.356;10.100;2022-08-25T06:35:07;101951.41;;;19.52;92.17
58843;BME280;44614;54.356;10.100;2022-08-25T06:37:33;101944.41;;;19.66;91.83
58843;BME280;44614;54.356;10.100;2022-08-25T06:39:59;101950.38;;;19.75;91.11
58843;BME280;44614;54.356;10.100;2022-08-25T06:42:25;101904.75;;;19.42;90.93
58843;BME280;44614;54.356;10.100;2022-08-25T06:44:50;101924.69;;;19.72;91.05
58843;BME280;44614;54.356;10.100;2022-08-25T06:47:16;101925.44;;;19.85;90.25
58843;BME280;44614;54.356;10.100;2022-08-25T06:49:42;101951.56;;;20.23;89.56
58843;BME280;44614;54.356;10.100;2022-08-25T06:52:08;101951.41;;;20.34;88.78
58843;BME280;44614;54.356;10.100;2022-08-25T06:54:34;101922.59;;;20.29;87.91
58843;BME280;44614;54.356;10.100;2022-08-25T06:57:00;101919.03;;;20.33;87.36
58843;BME280;44614;54.356;10.100;2022-08-25T06:59:26;101953.13;;;20.62;86.79
58843;BME280;44614;54.356;10.100;2022-08-25T07:01:51;101956.59;;;20.75;86.62
58843;BME280;44614;54.356;10.100;2022-08-25T07:04:17;101953.47;;;20.98;85.92
58843;BME280;44614;54.356;10.100;2022-08-25T07:06:43;101946.81;;;21.04;84.12
58843;BME280;44614;54.356;10.100;2022-08-25T07:09:10;101957.19;;;21.09;84.27
58843;BME280;44614;54.356;10.100;2022-08-25T07:11:35;101874.06;;;20.52;83.90
58843;BME280;44614;54.356;10.100;2022-08-25T07:14:02;101956.31;;;21.03;85.00
58843;BME280;44614;54.356;10.100;2022-08-25T07:16:28;101959.13;;;21.08;84.66
58843;BME280;44614;54.356;10.100;2022-08-25T07:18:55;101946.81;;;21.04;84.72
58843;BME280;44614;54.356;10.100;2022-08-25T07:21:24;101954.97;;;21.11;85.04
58843;BME280;44614;54.356;10.100;2022-08-25T07:23:50;101956.97;;;21.15;84.44
58843;BME280;44614;54.356;10.100;2022-08-25T07:26:19;101951.38;;;21.15;84.20
58843;BME280;44614;54.356;10.100;2022-08-25T07:28:45;101947.44;;;21.11;83.45
58843;BME280;44614;54.356;10.100;2022-08-25T07:31:10;101956.38;;;21.13;83.82
58843;BME280;44614;54.356;10.100;2022-08-25T07:33:36;101940.94;;;21.06;83.72
58843;BME280;44614;54.356;10.100;2022-08-25T07:36:02;101963.09;;;21.17;82.97
58843;BME280;44614;54.356;10.100;2022-08-25T07:38:27;101943.72;;;21.01;83.78
58843;BME280;44614;54.356;10.100;2022-08-25T07:41:00;101976.81;;;21.19;83.02
58843;BME280;44614;54.356;10.100;2022-08-25T07:43:26;101964.31;;;21.27;82.84
58843;BME280;44614;54.356;10.100;2022-08-25T07:45:52;101977.31;;;21.43;82.68
58843;BME280;44614;54.356;10.100;2022-08-25T07:48:17;101952.69;;;21.40;81.67
58843;BME280;44614;54.356;10.100;2022-08-25T07:50:45;101945.53;;;21.54;81.28
58843;BME280;44614;54.356;10.100;2022-08-25T07:53:11;101971.06;;;21.73;80.25
58843;BME280;44614;54.356;10.100;2022-08-25T07:55:37;101971.00;;;21.63;77.38
58843;BME280;44614;54.356;10.100;2022-08-25T07:58:05;101963.19;;;21.60;81.11
58843;BME280;44614;54.356;10.100;2022-08-25T08:00:31;101962.59;;;21.53;81.21
58843;BME280;44614;54.356;10.100;2022-08-25T08:02:59;101955.03;;;21.53;81.49
58843;BME280;44614;54.356;10.100;2022-08-25T08:05:27;101935.06;;;21.34;80.11
58843;BME280;44614;54.356;10.100;2022-08-25T08:07:53;101954.44;;;21.46;78.87
58843;BME280;44614;54.356;10.100;2022-08-25T08:10:19;101845.47;;;21.09;80.35
58843;BME280;44614;54.356;10.100;2022-08-25T08:12:45;101957.94;;;22.21;78.79
58843;BME280;44614;54.356;10.100;2022-08-25T08:15:10;101952.09;;;22.43;77.17
58843;BME280;44614;54.356;10.100;2022-08-25T08:17:37;101947.41;;;22.59;76.38
58843;BME280;44614;54.356;10.100;2022-08-25T08:20:03;101945.97;;;22.56;72.13
58843;BME280;44614;54.356;10.100;2022-08-25T08:22:31;101933.88;;;22.35;77.11
58843;BME280;44614;54.356;10.100;2022-08-25T08:24:57;101884.25;;;22.05;77.58
58843;BME280;44614;54.356;10.100;2022-08-25T08:27:22;101945.38;;;22.39;77.16
58843;BME280;44614;54.356;10.100;2022-08-25T08:29:48;101928.22;;;22.15;77.83
58843;BME280;44614;54.356;10.100;2022-08-25T08:32:14;101921.75;;;22.09;77.61
58843;BME280;44614;54.356;10.100;2022-08-25T08:34:40;101933.22;;;22.13;77.85
58843;BME280;44614;54.356;10.100;2022-08-25T08:37:06;101916.41;;;22.03;78.26
58843;BME280;44614;54.356;10.100;2022-08-25T08:39:32;101930.00;;;22.47;76.83
58843;BME280;44614;54.356;10.100;2022-08-25T08:42:32;101938.13;;;22.53;73.15
58843;BME280;44614;54.356;10.100;2022-08-25T08:45:54;101939.22;;;22.37;75.25
58843;BME280;44614;54.356;10.100;2022-08-25T08:51:15;101888.84;;;22.42;73.91
58843;BME280;44614;54.356;10.100;2022-08-25T08:53:49;101930.59;;;22.69;74.01
58843;BME280;44614;54.356;10.100;2022-08-25T08:56:31;101921.94;;;22.71;74.81
58843;BME280;44614;54.356;10.100;2022-08-25T08:59:03;101918.00;;;22.72;75.49
58843;BME280;44614;54.356;10.100;2022-08-25T09:01:39;101924.19;;;23.04;73.60
58843;BME280;44614;54.356;10.100;2022-08-25T09:06:46;101927.00;;;22.99;74.42
58843;BME280;44614;54.356;10.100;2022-08-25T09:09:15;101931.50;;;23.05;74.67
58843;BME280;44614;54.356;10.100;2022-08-25T09:12:22;101929.22;;;23.07;73.91
58843;BME280;44614;54.356;10.100;2022-08-25T09:15:06;101925.03;;;23.00;72.70
58843;BME280;44614;54.356;10.100;2022-08-25T09:17:59;101946.06;;;22.97;70.89
58843;BME280;44614;54.356;10.100;2022-08-25T09:23:33;101902.31;;;23.32;72.10
58843;BME280;44614;54.356;10.100;2022-08-25T09:29:03;101896.59;;;23.78;68.21
58843;BME280;44614;54.356;10.100;2022-08-25T09:31:34;101891.00;;;23.78;70.68
58843;BME280;44614;54.356;10.100;2022-08-25T09:34:06;101887.09;;;23.74;69.84
58843;BME280;44614;54.356;10.100;2022-08-25T09:36:35;101859.06;;;23.53;68.82
58843;BME280;44614;54.356;10.100;2022-08-25T09:39:01;101885.41;;;23.63;69.02
58843;BME280;44614;54.356;10.100;2022-08-25T09:44:36;101889.06;;;23.68;67.08
58843;BME280;44614;54.356;10.100;2022-08-25T09:49:47;101810.53;;;23.58;68.09
58843;BME280;44614;54.356;10.100;2022-08-25T09:52:30;101887.47;;;24.12;64.51
58843;BME280;44614;54.356;10.100;2022-08-25T09:57:46;101828.03;;;24.04;67.03
58843;BME280;44614;54.356;10.100;2022-08-25T10:02:45;101871.94;;;24.69;64.77
58843;BME280;44614;54.356;10.100;2022-08-25T10:05:25;101869.84;;;24.85;64.44
58843;BME280;44614;54.356;10.100;2022-08-25T10:07:54;101855.16;;;24.88;63.77
58843;BME280;44614;54.356;10.100;2022-08-25T10:10:43;101839.31;;;24.73;60.32
58843;BME280;44614;54.356;10.100;2022-08-25T10:13:37;101863.84;;;24.91;60.97
58843;BME280;44614;54.356;10.100;2022-08-25T10:16:06;101855.13;;;24.64;65.69
58843;BME280;44614;54.356;10.100;2022-08-25T10:18:32;101856.03;;;24.88;65.48
58843;BME280;44614;54.356;10.100;2022-08-25T10:23:36;101853.50;;;24.58;60.12
58843;BME280;44614;54.356;10.100;2022-08-25T10:26:08;101827.81;;;24.30;66.60
58843;BME280;44614;54.356;10.100;2022-08-25T10:28:51;101803.44;;;24.25;65.74
58843;BME280;44614;54.356;10.100;2022-08-25T10:31:28;101837.53;;;24.82;65.77
58843;BME280;44614;54.356;10.100;2022-08-25T10:37:09;101819.56;;;24.54;65.61
58843;BME280;44614;54.356;10.100;2022-08-25T10:39:40;101829.75;;;24.74;66.00
58843;BME280;44614;54.356;10.100;2022-08-25T10:42:25;101823.56;;;24.77;63.53
58843;BME280;44614;54.356;10.100;2022-08-25T10:45:07;101837.97;;;24.94;63.84
58843;BME280;44614;54.356;10.100;2022-08-25T10:50:40;101826.16;;;24.97;64.13
58843;BME280;44614;54.356;10.100;2022-08-25T11:03:54;101821.78;;;25.15;60.95
58843;BME280;44614;54.356;10.100;2022-08-25T11:06:31;101821.13;;;24.94;63.51
58843;BME280;44614;54.356;10.100;2022-08-25T11:09:03;101821.03;;;25.04;63.58
58843;BME280;44614;54.356;10.100;2022-08-25T11:14:31;101809.72;;;25.39;60.22
58843;BME280;44614;54.356;10.100;2022-08-25T11:17:05;101807.34;;;25.22;60.54
58843;BME280;44614;54.356;10.100;2022-08-25T11:19:43;101797.38;;;25.35;61.50
58843;BME280;44614;54.356;10.100;2022-08-25T11:22:29;101784.25;;;25.30;60.13
58843;BME280;44614;54.356;10.100;2022-08-25T11:30:12;101757.22;;;25.53;59.57
58843;BME280;44614;54.356;10.100;2022-08-25T11:32:38;101765.19;;;25.46;60.87
58843;BME280;44614;54.356;10.100;2022-08-25T11:35:07;101787.19;;;25.63;60.40
58843;BME280;44614;54.356;10.100;2022-08-25T11:37:39;101755.31;;;25.48;59.67
58843;BME280;44614;54.356;10.100;2022-08-25T11:40:13;101783.59;;;25.81;59.87
58843;BME280;44614;54.356;10.100;2022-08-25T11:42:55;101774.66;;;25.74;60.14
58843;BME280;44614;54.356;10.100;2022-08-25T11:51:08;101762.59;;;25.92;58.63
58843;BME280;44614;54.356;10.100;2022-08-25T11:53:36;101764.03;;;26.09;59.66
58843;BME280;44614;54.356;10.100;2022-08-25T11:56:08;101758.72;;;26.40;59.62
58843;BME280;44614;54.356;10.100;2022-08-25T11:58:52;101750.69;;;26.66;57.76
58843;BME280;44614;54.356;10.100;2022-08-25T12:04:38;101740.97;;;26.58;59.48
58843;BME280;44614;54.356;10.100;2022-08-25T12:12:37;101752.06;;;26.68;57.83
58843;BME280;44614;54.356;10.100;2022-08-25T12:17:44;101735.28;;;26.44;62.25
58843;BME280;44614;54.356;10.100;2022-08-25T12:20:09;101640.00;;;25.86;61.90
58843;BME280;44614;54.356;10.100;2022-08-25T12:25:17;101738.16;;;26.58;59.00
58843;BME280;44614;54.356;10.100;2022-08-25T12:28:00;101738.03;;;26.49;61.27
58843;BME280;44614;54.356;10.100;2022-08-25T12:31:14;101722.31;;;26.90;58.36
58843;BME280;44614;54.356;10.100;2022-08-25T12:33:50;101711.16;;;26.85;60.29
58843;BME280;44614;54.356;10.100;2022-08-25T12:36:31;101715.75;;;27.08;56.90
58843;BME280;44614;54.356;10.100;2022-08-25T12:39:20;101720.47;;;27.40;58.70
58843;BME280;44614;54.356;10.100;2022-08-25T12:41:54;101711.31;;;27.71;57.99
58843;BME280;44614;54.356;10.100;2022-08-25T12:49:44;101694.25;;;27.12;60.22
58843;BME280;44614;54.356;10.100;2022-08-25T12:52:19;101697.25;;;27.43;57.61
58843;BME280;44614;54.356;10.100;2022-08-25T12:54:58;101698.81;;;26.67;56.57
58843;BME280;44614;54.356;10.100;2022-08-25T13:00:10;101664.44;;;26.37;59.95
58843;BME280;44614;54.356;10.100;2022-08-25T13:07:57;101683.81;;;26.71;60.04
58843;BME280;44614;54.356;10.100;2022-08-25T13:10:33;101669.72;;;26.58;58.06
58843;BME280;44614;54.356;10.100;2022-08-25T13:15:40;101606.53;;;26.31;60.07
58843;BME280;44614;54.356;10.100;2022-08-25T13:20:39;101677.63;;;26.56;60.73
58843;BME280;44614;54.356;10.100;2022-08-25T13:23:04;101685.34;;;26.17;61.38
58843;BME280;44614;54.356;10.100;2022-08-25T13:25:30;101666.06;;;26.57;60.21
58843;BME280;44614;54.356;10.100;2022-08-25T13:28:00;101658.59;;;26.34;60.87
58843;BME280;44614;54.356;10.100;2022-08-25T13:30:30;101666.00;;;26.30;61.03
58843;BME280;44614;54.356;10.100;2022-08-25T13:32:56;101655.56;;;26.44;60.37
58843;BME280;44614;54.356;10.100;2022-08-25T13:35:28;101649.53;;;26.37;60.48
58843;BME280;44614;54.356;10.100;2022-08-25T13:38:11;101624.13;;;26.09;59.91
58843;BME280;44614;54.356;10.100;2022-08-25T13:40:37;101646.34;;;26.11;61.37
58843;BME280;44614;54.356;10.100;2022-08-25T13:43:05;101638.06;;;26.33;60.51
58843;BME280;44614;54.356;10.100;2022-08-25T13:45:35;101625.31;;;26.22;61.06
58843;BME280;44614;54.356;10.100;2022-08-25T13:48:02;101602.06;;;26.44;59.79
58843;BME280;44614;54.356;10.100;2022-08-25T13:50:34;101606.38;;;26.69;59.12
58843;BME280;44614;54.356;10.100;2022-08-25T13:53:15;101624.09;;;26.56;59.13
58843;BME280;44614;54.356;10.100;2022-08-25T13:58:15;101623.72;;;26.76;59.39
58843;BME280;44614;54.356;10.100;2022-08-25T14:01:00;101590.69;;;26.35;59.24
58843;BME280;44614;54.356;10.100;2022-08-25T14:03:34;101619.72;;;26.63;59.38
58843;BME280;44614;54.356;10.100;2022-08-25T14:08:47;101618.38;;;26.47;59.72
58843;BME280;44614;54.356;10.100;2022-08-25T14:14:02;101608.06;;;26.10;61.03
58843;BME280;44614;54.356;10.100;2022-08-25T14:16:31;101619.69;;;26.22;60.70
58843;BME280;44614;54.356;10.100;2022-08-25T14:19:00;101610.41;;;26.35;60.56
58843;BME280;44614;54.356;10.100;2022-08-25T14:21:30;101612.41;;;26.35;59.54
58843;BME280;44614;54.356;10.100;2022-08-25T14:23:57;101599.91;;;25.94;61.23
58843;BME280;44614;54.356;10.100;2022-08-25T14:26:23;101603.97;;;25.88;60.16
58843;BME280;44614;54.356;10.100;2022-08-25T14:28:48;101585.22;;;25.65;61.82